createdAt,value
2018-05-24T00:00:31.621Z,9.27
2018-05-24T00:02:59.873Z,8.80
2018-05-24T00:05:28.126Z,8.07
2018-05-24T00:07:56.989Z,10.80
2018-05-24T00:10:26.240Z,9.77
2018-05-24T00:12:54.489Z,11.67
2018-05-24T00:15:22.704Z,9.27
2018-05-24T00:17:50.937Z,10.20
2018-05-24T00:20:19.148Z,9.17
2018-05-24T00:22:47.411Z,7.97
2018-05-24T00:25:15.669Z,10.03
2018-05-24T00:27:43.869Z,7.37
2018-05-24T00:30:12.120Z,9.67
2018-05-24T00:32:40.361Z,8.03
2018-05-24T00:35:09.362Z,9.50
2018-05-24T00:37:38.345Z,8.37
2018-05-24T00:47:49.182Z,8.77
2018-05-24T00:50:18.162Z,9.87
2018-05-24T00:52:47.171Z,10.10
2018-05-24T00:55:27.379Z,10.17
2018-05-24T00:57:55.586Z,10.77
2018-05-24T01:00:24.574Z,8.30
2018-05-24T01:02:52.814Z,9.60
2018-05-24T01:05:21.062Z,9.80
2018-05-24T01:07:49.294Z,11.03
2018-05-24T01:12:51.382Z,10.27
2018-05-24T01:15:20.373Z,9.83
2018-05-24T01:17:48.632Z,11.67
2018-05-24T01:20:16.849Z,11.90
2018-05-24T01:22:45.097Z,11.07
2018-05-24T01:25:13.328Z,11.93
2018-05-24T01:27:41.586Z,11.77
2018-05-24T01:30:09.820Z,11.17
2018-05-24T01:32:38.103Z,13.00
2018-05-24T01:35:06.345Z,11.57
2018-05-24T01:37:46.256Z,11.87
2018-05-24T01:40:14.501Z,11.80
2018-05-24T01:42:43.498Z,13.27
2018-05-24T01:45:11.778Z,14.07
2018-05-24T01:47:40.003Z,12.57
2018-05-24T01:50:08.218Z,11.53
2018-05-24T01:52:36.442Z,12.07
2018-05-24T01:55:04.670Z,11.53
2018-05-24T01:57:33.664Z,12.47
2018-05-24T02:00:02.842Z,14.33
2018-05-24T02:02:31.088Z,12.07
2018-05-24T02:04:59.306Z,11.03
2018-05-24T02:07:27.546Z,13.67
2018-05-24T02:09:55.765Z,14.23
2018-05-24T02:12:24.842Z,11.37
2018-05-24T02:14:53.043Z,15.37
2018-05-24T02:17:22.025Z,12.70
2018-05-24T02:19:51.026Z,12.73
2018-05-24T02:22:20.033Z,13.80
2018-05-24T02:24:48.278Z,12.43
2018-05-24T02:27:16.505Z,14.10
2018-05-24T02:29:44.746Z,15.73
2018-05-24T02:32:13.784Z,14.07
2018-05-24T02:34:42.003Z,13.77
2018-05-24T02:37:10.231Z,13.73
2018-05-24T02:39:38.452Z,17.03
2018-05-24T02:42:06.711Z,13.63
2018-05-24T02:44:34.951Z,14.57
2018-05-24T02:47:03.215Z,14.50
2018-05-24T02:49:31.454Z,13.10
2018-05-24T02:51:59.688Z,14.37
2018-05-24T02:54:27.903Z,12.47
2018-05-24T02:56:56.175Z,13.00
2018-05-24T02:59:24.401Z,14.87
2018-05-24T03:01:52.621Z,13.00
2018-05-24T03:04:20.859Z,14.67
2018-05-24T03:06:49.126Z,16.23
2018-05-24T03:09:17.347Z,16.33
2018-05-24T03:11:45.576Z,14.30
2018-05-24T03:14:13.824Z,16.43
2018-05-24T03:16:42.834Z,13.30
2018-05-24T03:19:11.073Z,15.43
2018-05-24T03:21:39.310Z,15.43
2018-05-24T03:24:07.593Z,14.53
2018-05-24T03:26:35.904Z,13.70
2018-05-24T03:29:04.051Z,15.60
2018-05-24T03:31:32.310Z,16.00
2018-05-24T03:34:00.567Z,18.13
2018-05-24T03:36:28.795Z,15.93
2018-05-24T03:38:57.024Z,15.17
2018-05-24T03:41:26.542Z,15.33
2018-05-24T03:43:54.782Z,15.30
2018-05-24T03:46:23.004Z,15.30
2018-05-24T03:48:51.235Z,18.13
2018-05-24T03:51:19.614Z,15.60
2018-05-24T03:53:47.810Z,17.10
2018-05-24T03:56:16.083Z,15.90
2018-05-24T03:58:44.303Z,18.00
2018-05-24T04:01:24.447Z,17.63
2018-05-24T04:03:52.663Z,15.80
2018-05-24T04:06:21.668Z,18.33
2018-05-24T04:08:49.906Z,16.07
2018-05-24T04:11:18.135Z,15.37
2018-05-24T04:13:46.369Z,15.70
2018-05-24T04:16:14.602Z,18.37
2018-05-24T04:18:42.848Z,17.70
2018-05-24T04:21:11.088Z,17.10
2018-05-24T04:23:39.332Z,14.87
2018-05-24T04:26:07.559Z,17.73
2018-05-24T04:28:36.565Z,17.83
2018-05-24T04:31:04.774Z,16.20
2018-05-24T04:33:33.026Z,15.00
2018-05-24T04:36:01.344Z,15.23
2018-05-24T04:38:29.549Z,16.37
2018-05-24T04:40:57.796Z,16.63
2018-05-24T04:43:26.029Z,16.20
2018-05-24T04:45:54.263Z,15.90
2018-05-24T04:48:23.277Z,15.83
2018-05-24T04:50:52.256Z,20.70
2018-05-24T04:53:21.269Z,16.87
2018-05-24T04:55:49.547Z,19.00
2018-05-24T04:58:17.769Z,17.93
2018-05-24T05:00:48.632Z,19.03
2018-05-24T05:03:17.346Z,19.07
2018-05-24T05:05:45.568Z,20.43
2018-05-24T05:08:13.792Z,16.27
2018-05-24T05:10:42.019Z,18.23
2018-05-24T05:13:10.254Z,17.03
2018-05-24T05:15:38.498Z,15.37
2018-05-24T05:18:07.497Z,17.60
2018-05-24T05:20:36.494Z,15.83
2018-05-24T05:23:05.512Z,16.73
2018-05-24T05:25:34.479Z,16.77
2018-05-24T05:28:03.564Z,16.47
2018-05-24T05:30:31.802Z,16.43
2018-05-24T05:33:00.027Z,20.83
2018-05-24T05:35:28.398Z,20.23
2018-05-24T05:37:56.619Z,17.77
2018-05-24T05:40:24.877Z,17.37
2018-05-24T05:42:53.123Z,20.67
2018-05-24T05:45:21.318Z,17.57
2018-05-24T05:47:49.630Z,18.40
2018-05-24T05:50:17.911Z,22.60
2018-05-24T05:52:46.121Z,21.27
2018-05-24T05:55:14.383Z,22.30
2018-05-24T05:57:42.597Z,21.50
2018-05-24T06:00:11.618Z,21.63
2018-05-24T06:02:39.874Z,20.47
2018-05-24T06:05:08.135Z,20.27
2018-05-24T06:07:37.137Z,21.57
2018-05-24T06:10:05.382Z,20.97
2018-05-24T06:12:33.622Z,19.53
2018-05-24T06:15:02.631Z,19.77
2018-05-24T06:17:30.895Z,18.27
2018-05-24T06:19:59.107Z,25.90
2018-05-24T06:22:27.352Z,20.20
2018-05-24T06:24:55.617Z,20.37
2018-05-24T06:27:23.861Z,18.77
2018-05-24T06:29:52.114Z,21.13
2018-05-24T06:32:20.357Z,22.37
2018-05-24T06:34:48.668Z,17.23
2018-05-24T06:37:16.877Z,17.73
2018-05-24T06:39:45.093Z,18.77
2018-05-24T06:42:13.378Z,18.50
2018-05-24T06:44:41.625Z,19.27
2018-05-24T06:47:09.889Z,19.43
2018-05-24T06:49:38.130Z,19.73
2018-05-24T06:52:06.464Z,21.87
2018-05-24T06:54:34.758Z,18.60
2018-05-24T06:57:02.972Z,24.33
2018-05-24T06:59:31.194Z,19.70
2018-05-24T07:02:00.420Z,26.50
2018-05-24T07:04:29.427Z,18.43
2018-05-24T07:06:57.704Z,21.33
2018-05-24T07:09:25.926Z,18.00
2018-05-24T07:11:54.204Z,21.30
2018-05-24T07:14:22.423Z,19.87
2018-05-24T07:16:51.515Z,18.10
2018-05-24T07:19:20.524Z,16.70
2018-05-24T07:21:48.970Z,16.00
2018-05-24T07:24:17.165Z,19.73
2018-05-24T07:26:46.207Z,18.53
2018-05-24T07:29:14.416Z,17.23
2018-05-24T07:31:42.654Z,20.17
2018-05-24T07:34:10.897Z,17.80
2018-05-24T07:36:39.129Z,20.57
2018-05-24T07:39:07.372Z,18.77
2018-05-24T07:41:35.594Z,20.83
2018-05-24T07:44:03.898Z,20.30
2018-05-24T07:46:32.117Z,20.23
2018-05-24T07:49:00.338Z,19.13
2018-05-24T07:51:28.562Z,21.43
2018-05-24T07:53:56.792Z,23.13
2018-05-24T07:56:25.786Z,24.70
2018-05-24T07:58:54.791Z,17.50
2018-05-24T08:01:23.058Z,20.47
2018-05-24T08:03:52.039Z,20.93
2018-05-24T08:06:21.021Z,19.07
2018-05-24T08:08:49.667Z,21.57
2018-05-24T08:11:17.884Z,19.20
2018-05-24T08:13:46.178Z,19.83
2018-05-24T08:16:14.395Z,20.27
2018-05-24T08:18:42.617Z,19.37
2018-05-24T08:21:11.618Z,30.03
2018-05-24T08:23:40.669Z,19.97
2018-05-24T08:26:08.878Z,20.33
2018-05-24T08:28:37.941Z,21.67
2018-05-24T08:31:06.184Z,23.20
2018-05-24T08:33:34.413Z,24.13
2018-05-24T08:36:02.645Z,22.50
2018-05-24T08:38:30.886Z,23.83
2018-05-24T08:40:59.967Z,25.83
2018-05-24T08:43:28.891Z,19.97
2018-05-24T08:45:57.151Z,25.37
2018-05-24T08:48:26.141Z,21.27
2018-05-24T08:50:55.166Z,21.33
2018-05-24T08:53:23.470Z,18.93
2018-05-24T08:55:51.709Z,18.70
2018-05-24T08:58:19.937Z,19.37
2018-05-24T09:00:48.189Z,24.33
2018-05-24T09:03:16.515Z,22.33
2018-05-24T09:05:44.777Z,22.07
2018-05-24T09:08:13.167Z,20.77
2018-05-24T09:10:42.201Z,24.23
2018-05-24T09:13:10.428Z,18.90
2018-05-24T09:15:38.680Z,18.47
2018-05-24T09:18:06.947Z,21.70
2018-05-24T09:20:35.172Z,17.27
2018-05-24T09:23:04.174Z,27.70
2018-05-24T09:25:32.411Z,23.03
2018-05-24T09:28:01.260Z,17.97
2018-05-24T09:30:29.415Z,17.87
2018-05-24T09:32:57.665Z,26.67
2018-05-24T09:35:25.875Z,16.27
2018-05-24T09:37:54.122Z,15.43
2018-05-24T09:40:23.139Z,18.13
2018-05-24T09:42:52.133Z,15.23
2018-05-24T09:45:20.354Z,14.80
2018-05-24T09:47:48.618Z,19.33
2018-05-24T09:50:16.886Z,16.07
2018-05-24T09:52:45.783Z,17.47
2018-05-24T09:55:14.051Z,15.53
2018-05-24T09:57:42.302Z,18.47
2018-05-24T10:00:10.547Z,17.50
2018-05-24T10:02:39.522Z,16.63
2018-05-24T10:05:07.759Z,15.60
2018-05-24T10:07:35.975Z,16.33
2018-05-24T10:10:04.248Z,15.97
2018-05-24T10:12:32.608Z,12.90
2018-05-24T10:15:00.844Z,12.07
2018-05-24T10:17:29.114Z,12.97
2018-05-24T10:19:57.309Z,9.47
2018-05-24T10:22:25.567Z,10.57
2018-05-24T10:24:53.810Z,11.13
2018-05-24T10:27:22.084Z,11.43
2018-05-24T10:29:50.291Z,10.53
2018-05-24T10:32:19.325Z,10.90
2018-05-24T10:34:47.625Z,10.43
2018-05-24T10:37:15.831Z,11.73
2018-05-24T10:39:44.870Z,13.63
2018-05-24T10:42:13.088Z,13.37
2018-05-24T10:44:41.330Z,14.10
2018-05-24T10:47:11.413Z,11.87
2018-05-24T10:49:39.748Z,12.97
2018-05-24T10:52:08.059Z,10.20
2018-05-24T10:54:36.278Z,10.83
2018-05-24T10:57:04.643Z,10.87
2018-05-24T10:59:32.947Z,11.20
2018-05-24T11:02:01.115Z,15.57
2018-05-24T11:04:29.344Z,15.23
2018-05-24T11:06:57.576Z,11.33
2018-05-24T11:09:25.873Z,12.90
2018-05-24T11:11:54.837Z,10.00
2018-05-24T11:14:23.071Z,12.20
2018-05-24T11:16:51.320Z,12.30
2018-05-24T11:19:19.548Z,10.70
2018-05-24T11:21:47.782Z,11.50
2018-05-24T11:24:16.016Z,10.60
2018-05-24T11:26:44.761Z,12.27
2018-05-24T11:29:12.988Z,14.67
2018-05-24T11:31:42.904Z,10.47
2018-05-24T11:34:11.093Z,10.30
2018-05-24T11:36:40.093Z,11.63
2018-05-24T11:39:09.113Z,9.83
2018-05-24T11:41:37.320Z,9.10
2018-05-24T11:44:05.564Z,9.17
2018-05-24T11:46:33.778Z,6.43
2018-05-24T11:49:02.460Z,7.50
2018-05-24T11:51:30.710Z,8.83
2018-05-24T11:53:59.016Z,11.07
2018-05-24T11:56:27.260Z,10.27
2018-05-24T11:58:55.574Z,9.27
2018-05-24T12:01:23.800Z,8.23
2018-05-24T12:03:52.024Z,7.87
2018-05-24T12:06:21.900Z,6.23
2018-05-24T12:08:50.150Z,6.80
2018-05-24T12:11:19.146Z,7.67
2018-05-24T12:13:47.419Z,6.47
2018-05-24T12:16:16.394Z,8.60
2018-05-24T12:18:45.403Z,8.97
2018-05-24T12:21:13.649Z,9.60
2018-05-24T12:23:41.898Z,11.40
2018-05-24T12:26:10.125Z,12.33
2018-05-24T12:28:38.330Z,12.43
2018-05-24T12:31:06.538Z,11.53
2018-05-24T12:33:34.782Z,13.20
2018-05-24T12:36:03.061Z,13.50
2018-05-24T12:38:31.285Z,11.00
2018-05-24T12:40:59.532Z,11.93
2018-05-24T12:43:27.746Z,9.57
2018-05-24T12:45:55.969Z,8.67
2018-05-24T12:48:24.190Z,10.93
2018-05-24T12:50:52.396Z,9.70
2018-05-24T12:53:20.629Z,7.93
2018-05-24T12:55:48.868Z,10.33
2018-05-24T12:58:17.107Z,7.57
2018-05-24T13:00:46.088Z,8.67
2018-05-24T13:03:14.316Z,11.13
2018-05-24T13:05:43.264Z,12.57
2018-05-24T13:08:12.267Z,10.07
2018-05-24T13:10:40.513Z,9.27
2018-05-24T13:13:08.751Z,9.10
2018-05-24T13:15:37.002Z,13.27
2018-05-24T13:18:05.242Z,12.20
2018-05-24T13:20:34.239Z,10.10
2018-05-24T13:23:02.498Z,8.93
2018-05-24T13:25:30.787Z,13.33
2018-05-24T13:27:58.987Z,9.40
2018-05-24T13:30:27.238Z,9.33
2018-05-24T13:32:55.478Z,11.67
2018-05-24T13:35:23.728Z,12.57
2018-05-24T13:37:51.968Z,12.23
2018-05-24T13:40:20.246Z,12.37
2018-05-24T13:42:48.564Z,9.43
2018-05-24T13:45:16.987Z,9.37
2018-05-24T13:47:45.197Z,10.43
2018-05-24T13:50:13.430Z,11.67
2018-05-24T13:52:42.001Z,9.87
2018-05-24T13:55:10.963Z,9.97
2018-05-24T13:57:45.060Z,15.00
2018-05-24T14:00:13.311Z,12.00
2018-05-24T14:02:42.345Z,11.90
2018-05-24T14:05:10.632Z,14.17
2018-05-24T14:07:38.855Z,13.67
2018-05-24T14:10:08.061Z,14.60
2018-05-24T14:12:36.320Z,9.67
2018-05-24T14:15:04.603Z,7.93
2018-05-24T14:17:32.874Z,10.77
2018-05-24T14:20:01.064Z,9.30
2018-05-24T14:22:29.277Z,9.03
2018-05-24T14:24:57.539Z,9.40
2018-05-24T14:27:25.765Z,9.13
2018-05-24T14:29:53.990Z,10.50
2018-05-24T14:32:22.240Z,7.93
2018-05-24T14:34:51.238Z,10.30
2018-05-24T14:37:20.221Z,7.87
2018-05-24T14:39:48.445Z,8.07
2018-05-24T14:42:16.681Z,8.10
2018-05-24T14:44:45.722Z,8.13
2018-05-24T14:47:14.679Z,6.50
2018-05-24T14:49:42.958Z,9.17
2018-05-24T14:52:11.231Z,6.83
2018-05-24T14:54:40.222Z,7.27
2018-05-24T14:57:09.222Z,8.77
2018-05-24T14:59:37.457Z,5.87
2018-05-24T15:02:05.665Z,8.10
2018-05-24T15:04:34.670Z,7.20
2018-05-24T15:07:02.898Z,5.07
2018-05-24T15:09:31.121Z,5.33
2018-05-24T15:11:59.339Z,6.40
2018-05-24T15:14:27.570Z,6.30
2018-05-24T15:16:56.550Z,6.10
2018-05-24T15:19:25.556Z,6.97
2018-05-24T15:21:53.803Z,5.90
2018-05-24T15:24:22.109Z,6.80
2018-05-24T15:26:50.375Z,5.33
2018-05-24T15:29:18.574Z,5.80
2018-05-24T15:31:46.798Z,6.53
2018-05-24T15:34:15.009Z,5.53
2018-05-24T15:36:43.249Z,6.10
2018-05-24T15:39:11.510Z,7.57
2018-05-24T15:41:39.752Z,9.67
2018-05-24T15:44:08.000Z,6.33
2018-05-24T15:46:36.995Z,6.67
2018-05-24T15:49:05.210Z,7.10
2018-05-24T15:51:33.455Z,8.10
2018-05-24T15:54:01.670Z,6.17
2018-05-24T15:56:29.916Z,6.63
2018-05-24T15:58:58.139Z,6.43
2018-05-24T16:01:27.130Z,5.63
2018-05-24T16:03:55.381Z,7.67
2018-05-24T16:06:23.614Z,6.43
2018-05-24T16:08:51.837Z,7.63
2018-05-24T16:11:20.106Z,8.37
2018-05-24T16:13:48.556Z,6.70
2018-05-24T16:16:16.654Z,7.30
2018-05-24T16:18:44.882Z,11.37
2018-05-24T16:21:13.875Z,7.03
2018-05-24T16:23:42.106Z,7.70
2018-05-24T16:26:10.364Z,7.70
2018-05-24T16:28:38.621Z,7.40
2018-05-24T16:31:06.878Z,8.03
2018-05-24T16:33:35.130Z,10.63
2018-05-24T16:36:03.395Z,10.57
2018-05-24T16:38:31.618Z,7.53
2018-05-24T16:41:00.607Z,7.73
2018-05-24T16:43:29.611Z,11.90
2018-05-24T16:45:57.864Z,6.93
2018-05-24T16:48:26.099Z,10.00
2018-05-24T16:50:54.344Z,9.93
2018-05-24T16:53:23.354Z,10.93
2018-05-24T16:55:51.636Z,8.13
2018-05-24T16:58:19.818Z,9.67
2018-05-24T17:00:48.060Z,10.57
2018-05-24T17:03:16.279Z,10.73
2018-05-24T17:05:44.570Z,9.93
2018-05-24T17:08:12.775Z,6.33
2018-05-24T17:10:41.762Z,7.77
2018-05-24T17:13:10.771Z,6.20
2018-05-24T17:15:39.018Z,6.60
2018-05-24T17:18:07.244Z,6.50
2018-05-24T17:20:35.532Z,7.10
2018-05-24T17:23:03.761Z,7.50
2018-05-24T17:25:32.031Z,7.40
2018-05-24T17:28:00.275Z,8.33
2018-05-24T17:30:28.558Z,8.83
2018-05-24T17:32:56.755Z,6.87
2018-05-24T17:35:25.750Z,8.13
2018-05-24T17:37:54.755Z,5.67
2018-05-24T17:40:23.754Z,10.60
2018-05-24T17:42:51.994Z,9.93
2018-05-24T17:45:20.234Z,9.07
2018-05-24T17:47:48.443Z,8.03
2018-05-24T17:50:16.754Z,6.30
2018-05-24T17:52:44.985Z,5.73
2018-05-24T17:55:13.201Z,4.90
2018-05-24T17:57:42.192Z,4.30
2018-05-24T18:00:11.169Z,6.17
2018-05-24T18:02:40.158Z,4.07
2018-05-24T18:05:08.439Z,4.20
2018-05-24T18:07:36.691Z,5.60
2018-05-24T18:10:04.907Z,5.83
2018-05-24T18:12:33.136Z,4.80
2018-05-24T18:15:01.363Z,4.57
2018-05-24T18:17:30.387Z,5.00
2018-05-24T18:19:58.603Z,3.87
2018-05-24T18:22:27.704Z,7.47
2018-05-24T18:24:55.912Z,5.50
2018-05-24T18:27:24.174Z,7.40
2018-05-24T18:29:52.384Z,6.17
2018-05-24T18:32:20.610Z,7.47
2018-05-24T18:34:49.614Z,12.33
2018-05-24T18:37:17.870Z,5.40
2018-05-24T18:39:46.072Z,8.97
2018-05-24T18:42:14.281Z,8.97
2018-05-24T18:44:42.523Z,9.73
2018-05-24T18:47:10.770Z,6.47
2018-05-24T18:49:39.032Z,7.80
2018-05-24T18:52:07.270Z,5.20
2018-05-24T18:54:35.481Z,6.30
2018-05-24T18:57:03.787Z,4.80
2018-05-24T18:59:32.016Z,7.87
2018-05-24T19:02:00.266Z,3.73
2018-05-24T19:04:28.464Z,4.70
2018-05-24T19:06:56.721Z,4.27
2018-05-24T19:09:24.934Z,9.43
2018-05-24T19:11:53.226Z,7.07
2018-05-24T19:14:21.463Z,4.43
2018-05-24T19:16:49.689Z,7.83
2018-05-24T19:19:18.001Z,7.30
2018-05-24T19:21:46.177Z,6.07
2018-05-24T19:24:14.453Z,7.03
2018-05-24T19:26:42.668Z,4.67
2018-05-24T19:29:10.922Z,5.13
2018-05-24T19:31:39.127Z,7.53
2018-05-24T19:34:07.378Z,4.87
2018-05-24T19:36:35.599Z,5.77
2018-05-24T19:39:05.442Z,4.60
2018-05-24T19:41:33.728Z,4.23
2018-05-24T19:44:01.963Z,7.77
2018-05-24T19:46:30.338Z,7.27
2018-05-24T19:48:59.070Z,7.40
2018-05-24T19:51:27.306Z,6.57
2018-05-24T19:53:55.577Z,5.83
2018-05-24T19:56:23.778Z,4.70
2018-05-24T19:58:52.918Z,4.70
2018-05-24T20:01:21.138Z,5.37
2018-05-24T20:03:49.366Z,5.83
2018-05-24T20:06:17.620Z,4.67
2018-05-24T20:08:45.911Z,4.87
2018-05-24T20:11:14.162Z,7.40
2018-05-24T20:13:42.390Z,6.33
2018-05-24T20:16:10.953Z,4.40
2018-05-24T20:18:39.181Z,7.37
2018-05-24T20:21:07.419Z,4.77
2018-05-24T20:23:35.638Z,11.20
2018-05-24T20:26:03.870Z,6.90
2018-05-24T20:28:32.132Z,5.27
2018-05-24T20:31:00.567Z,6.23
2018-05-24T20:33:28.887Z,6.43
2018-05-24T20:35:57.254Z,6.33
2018-05-24T20:38:25.486Z,6.13
2018-05-24T20:40:53.696Z,6.23
2018-05-24T20:43:21.923Z,8.67
2018-05-24T20:45:50.141Z,6.27
2018-05-24T20:48:18.596Z,5.03
2018-05-24T20:50:48.264Z,4.37
2018-05-24T20:53:17.208Z,6.90
2018-05-24T20:55:45.471Z,6.77
2018-05-24T20:58:13.720Z,6.17
2018-05-24T21:00:41.923Z,7.37
2018-05-24T21:03:10.147Z,6.23
2018-05-24T21:05:38.374Z,5.13
2018-05-24T21:08:06.746Z,6.07
2018-05-24T21:10:35.822Z,6.30
2018-05-24T21:13:04.809Z,7.30
2018-05-24T21:15:33.834Z,6.93
2018-05-24T21:18:02.091Z,6.43
2018-05-24T21:20:31.099Z,11.20
2018-05-24T21:22:59.315Z,4.67
2018-05-24T21:25:27.569Z,7.37
2018-05-24T21:27:55.798Z,5.60
2018-05-24T21:30:24.061Z,4.60
2018-05-24T21:32:52.269Z,5.17
2018-05-24T21:35:20.707Z,4.50
2018-05-24T21:37:49.084Z,7.03
2018-05-24T21:40:17.334Z,4.87
2018-05-24T21:42:45.550Z,7.37
2018-05-24T21:45:13.759Z,6.50
2018-05-24T21:47:41.976Z,5.17
2018-05-24T21:50:10.206Z,4.07
2018-05-24T21:52:38.429Z,8.43
2018-05-24T21:55:06.631Z,5.43
2018-05-24T21:57:35.638Z,6.37
2018-05-24T22:00:03.865Z,6.40
2018-05-24T22:02:32.074Z,5.27
2018-05-24T22:05:01.073Z,5.43
2018-05-24T22:07:30.082Z,6.40
2018-05-24T22:09:58.280Z,4.83
2018-05-24T22:12:26.507Z,4.50
2018-05-24T22:14:54.731Z,7.63
2018-05-24T22:17:22.950Z,8.30
2018-05-24T22:19:51.197Z,5.03
2018-05-24T22:22:19.431Z,5.83
2018-05-24T22:24:47.686Z,6.20
2018-05-24T22:27:15.901Z,6.03
2018-05-24T22:29:44.131Z,7.47
2018-05-24T22:32:12.372Z,6.70
2018-05-24T22:34:40.616Z,9.03
2018-05-24T22:37:08.820Z,4.97
2018-05-24T22:39:37.073Z,6.23
2018-05-24T22:42:05.316Z,7.33
2018-05-24T22:44:33.531Z,6.53
2018-05-24T22:47:01.760Z,7.23
2018-05-24T22:49:29.987Z,5.43
2018-05-24T22:51:58.203Z,4.43
2018-05-24T22:54:26.439Z,6.70
2018-05-24T22:56:54.654Z,6.80
2018-05-24T22:59:22.888Z,6.37
2018-05-24T23:01:51.118Z,5.30
2018-05-24T23:04:19.355Z,5.77
2018-05-24T23:06:47.617Z,4.83
2018-05-24T23:09:15.891Z,7.70
2018-05-24T23:11:44.154Z,6.20
2018-05-24T23:14:12.386Z,6.80
2018-05-24T23:16:40.606Z,7.83
2018-05-24T23:19:08.837Z,6.77
2018-05-24T23:21:37.861Z,6.47
2018-05-24T23:24:06.090Z,6.23
2018-05-24T23:26:34.325Z,8.40
2018-05-24T23:29:02.529Z,9.70
2018-05-24T23:31:30.754Z,9.27
2018-05-24T23:33:59.751Z,10.33
2018-05-24T23:36:27.969Z,10.83
2018-05-24T23:38:57.668Z,8.67
2018-05-24T23:41:26.728Z,11.20
2018-05-24T23:43:55.024Z,11.27
2018-05-24T23:46:23.256Z,10.87
2018-05-24T23:48:51.478Z,8.50
2018-05-24T23:51:19.695Z,7.17
2018-05-24T23:53:47.903Z,7.10
2018-05-24T23:56:16.893Z,11.40
2018-05-24T23:58:45.919Z,7.93
